Latest Coastal Weather Observations for Lord Howe Island

IDN60701

Issued at 6:11 am EST Monday 1 June 2020 (issued every 10 minutes, with the page automatically refreshed every 10 minutes)

About coastal observations | Map of coastal stations | Coastal observations for NSW | Marine services | Other Formats
Station Details ID: 200839 Name: LORD HOWE ISLAND AERO Lat: -31.54 Lon: 159.08 Height: 5.0 m
Data from the previous 72 hours. | See also: Recent months at Lord Howe Island

Observations are collected in the New South Wales time zone (Eastern Standard Time) which includes daylight savings in the summer period. Therefore 'Rain since 9am' totals and other values are based on the New South Wales time zone, which may differ from local time.

Date/Time
EST
Wind Sea
Height
m
Swell Vis
km
Cloud Weather Temp
°C
Press
hPa
Rain since
9am
mm
Dir  Spd
kts
Gust
kts
Height
m
Period
s
Dir
01/06:00am N 5 9 - - - - 10 Partly cloudy - 18.1 1018.4 8.6
01/05:30am N 6 10 - - - - 10 Partly cloudy Rain 17.3 1018.6 8.2
01/05:00am ENE 9 15 - - - - 10 Partly cloudy - 16.6 1018.2 8.2
01/04:30am N 10 15 - - - - 10 Partly cloudy - 17.4 1018.2 8.2
01/04:00am N 5 8 - - - - 10 Partly cloudy - 18.5 1018.2 8.2
01/03:30am N 5 7 - - - - 10 - - 17.9 1018.4 8.2
01/03:00am N 6 9 - - - - 10 Partly cloudy - 18.0 1018.5 8.2
01/02:30am N 6 9 - - - - 10 Mostly clear - 17.9 1018.8 8.2
01/02:00am N 7 9 - - - - 10 Partly cloudy - 17.9 1018.8 8.2
01/01:30am N 7 10 - - - - 10 Partly cloudy - 18.2 1019.2 8.2
01/01:00am NNE 5 12 - - - - 10 Partly cloudy - 17.6 1019.3 8.2
01/12:30am NNE 7 9 - - - - 10 Partly cloudy - 18.1 1019.6 8.2
01/12:00am NNE 6 9 - - - - 10 Partly cloudy - 17.7 1019.9 8.2
 
Date/Time
EST
Wind Sea
Height
m
Swell Vis
km
Cloud Weather Temp
°C
Press
hPa
Rain since
9am
mm
Dir  Spd
kts
Gust
kts
Height
m
Period
s
Dir
31/11:30pm NNE 5 11 - - - - 10 Mostly clear - 17.9 1020.1 8.2
31/11:00pm NNE 6 10 - - - - 10 - - 17.8 1020.4 8.2
31/10:30pm NNE 9 12 - - - - 10 Partly cloudy - 17.8 1020.6 8.2
31/10:00pm NE 9 11 - - - - 10 Partly cloudy - 17.7 1020.9 8.2
31/09:30pm NE 8 10 - - - - 10 - - 17.8 1021.0 8.2
31/09:00pm NE 9 11 - - - - 10 Partly cloudy - 17.6 1021.1 8.2
31/08:30pm ENE 9 12 - - - - 10 - - 17.7 1021.2 8.2
31/08:00pm ENE 10 13 - - - - 10 Partly cloudy - 17.7 1021.3 8.2
31/07:30pm ENE 11 14 - - - - 10 Partly cloudy - 17.7 1021.4 8.2
31/07:00pm ENE 11 13 - - - - 10 Partly cloudy - 17.6 1021.5 8.2
31/06:30pm E 7 9 - - - - 10 Partly cloudy - 16.6 1021.4 8.2
31/06:05pm ESE 7 12 - - - - 10 Partly cloudy - 16.3 1021.4 7.8
31/06:00pm ESE 7 12 - - - - 9 Partly cloudy - 16.3 1021.4 7.8
31/05:44pm E 12 18 - - - - 5 Partly cloudy - 16.2 1021.4 6.6
31/05:30pm E 11 13 - - - - 9 Mostly cloudy Drizzle 16.7 1021.4 6.2
31/05:00pm ESE 7 10 - - - - 10 Cloudy - 16.5 1021.3 6.2
31/04:30pm ESE 7 11 - - - - 10 Partly cloudy - 16.6 1021.0 6.2
31/04:00pm E 8 13 - - - - 10 Partly cloudy - 17.1 1020.7 6.2
31/03:30pm ESE 6 8 - - - - 10 Partly cloudy - 16.7 1020.9 6.2
31/03:10pm E 9 11 - - - - 8 Partly cloudy - 16.8 1021.1 5.6
31/03:00pm ESE 8 11 - - - - 5 Partly cloudy - 17.0 1021.2 5.4
31/02:45pm SE 7 11 - - - - 5 Partly cloudy - 17.8 1021.2 2.4
31/02:30pm ESE 8 12 - - - - 10 Cloudy - 19.1 1021.0 1.0
31/02:00pm NE 5 7 - - - - 10 Partly cloudy - 20.8 1021.0 1.0
31/01:30pm NNE 4 6 - - - - 10 Cloudy - 21.1 1021.1 1.0
31/01:00pm N 3 5 - - - - 10 Cloudy - 19.6 1021.2 1.0
31/12:30pm N 4 6 - - - - 10 Cloudy - 18.8 1021.6 1.0
31/12:15pm NNE 5 6 - - - - 10 Partly cloudy - 18.6 1021.7 1.0
31/12:00pm E 5 7 - - - - 4 Partly cloudy - 19.0 1021.8 1.0
31/11:56am E 4 8 - - - - 5 Partly cloudy - 19.5 1021.8 0.8
31/11:30am E 6 8 - - - - 10 Cloudy - 21.6 1022.1 0.0
31/11:00am E 5 7 - - - - 10 - - 21.2 1022.6 0.0
31/10:30am E 6 8 - - - - 10 - - 21.1 1022.5 0.0
31/10:00am ENE 7 9 - - - - 10 - - 21.0 1022.9 0.0
31/09:30am ENE 6 9 - - - - 10 - - 20.9 1023.3 0.0
31/09:00am NE 6 8 - - - - 10 - - 21.2 1023.2 0.0
31/08:30am ENE 7 9 - - - - 10 - - 20.4 1023.0 0.0
31/08:00am ENE 8 10 - - - - 10 Partly cloudy - 20.1 1022.9 0.0
31/07:30am E 9 11 - - - - 10 - - 19.6 1022.7 0.0
31/07:00am ENE 8 10 - - - - 10 - - 19.1 1022.7 0.0
31/06:30am ESE 4 7 - - - - 10 Partly cloudy - 17.1 1022.6 0.0
31/06:00am ESE 5 8 - - - - 10 Partly cloudy - 17.5 1022.4 0.0
31/05:30am E 9 12 - - - - 20 Mostly clear Fine 18.0 1022.3 0.0
31/05:00am E 10 13 - - - - 10 Partly cloudy - 18.5 1022.1 0.0
31/04:30am E 9 12 - - - - 10 Partly cloudy - 18.5 1021.7 0.0
31/04:00am E 10 13 - - - - 10 Partly cloudy - 18.4 1021.8 0.0
31/03:30am E 10 12 - - - - 10 Partly cloudy - 18.6 1021.8 0.0
31/03:00am ESE 5 10 - - - - 10 Partly cloudy - 18.3 1022.1 0.0
31/02:30am E 7 11 - - - - 10 Cloudy - 18.1 1022.3 0.0
31/02:00am ESE 6 8 - - - - 10 Partly cloudy - 18.2 1022.5 0.0
31/01:30am SE 4 8 - - - - 10 Partly cloudy - 18.0 1022.7 0.0
31/01:00am E 11 16 - - - - 10 Partly cloudy - 18.7 1022.7 0.0
31/12:30am E 11 16 - - - - 10 Partly cloudy - 18.9 1022.7 0.0
31/12:00am E 11 16 - - - - 10 Partly cloudy - 18.9 1022.9 0.0
 
Date/Time
EST
Wind Sea
Height
m
Swell Vis
km
Cloud Weather Temp
°C
Press
hPa
Rain since
9am
mm
Dir  Spd
kts
Gust
kts
Height
m
Period
s
Dir
30/11:30pm ESE 5 8 - - - - 10 Mostly clear - 18.6 1023.4 0.0
30/11:00pm ESE 5 11 - - - - 10 Partly cloudy - 18.4 1023.4 0.0
30/10:30pm ESE 5 13 - - - - 10 Partly cloudy - 18.8 1023.6 0.0
30/10:00pm ESE 7 17 - - - - 10 Partly cloudy - 18.8 1023.5 0.0
30/09:30pm SE 6 14 - - - - 10 Partly cloudy - 18.6 1023.8 0.0
30/09:00pm ESE 6 10 - - - - 10 - - 18.4 1024.1 0.0
30/08:30pm ESE 7 13 - - - - 10 Mostly clear - 18.7 1024.2 0.0
30/08:00pm ESE 8 13 - - - - 10 Partly cloudy - 18.7 1024.3 0.0
30/07:30pm ESE 9 22 - - - - 10 Partly cloudy - 19.1 1024.2 0.0
30/07:00pm ESE 9 15 - - - - 10 Partly cloudy - 19.2 1024.1 0.0
30/06:30pm ESE 9 17 - - - - 10 Partly cloudy - 18.8 1023.9 0.0
30/06:00pm ESE 7 13 - - - - 10 Partly cloudy - 18.9 1023.9 0.0
30/05:30pm ESE 7 12 - - - - 10 Cloudy - 19.0 1023.8 0.0
30/05:00pm ESE 6 12 - - - - 10 Partly cloudy - 19.1 1023.7 0.0
30/04:30pm ESE 8 13 - - - - 10 Partly cloudy - 19.1 1023.5 0.0
30/04:00pm E 9 16 - - - - 10 Partly cloudy - 19.3 1023.3 0.0
30/03:30pm E 12 20 - - - - 10 Partly cloudy - 19.5 1023.1 0.0
30/03:00pm ESE 9 17 - - - - 10 Partly cloudy - 19.8 1022.7 0.0
30/02:30pm E 10 15 - - - - 25 Partly cloudy Fine 20.6 1022.7 0.0
30/02:00pm E 12 20 - - - - 10 Partly cloudy - 20.2 1022.5 0.0
30/01:30pm ESE 11 21 - - - - 10 Partly cloudy - 20.0 1022.5 0.0
30/01:00pm E 12 20 - - - - 10 Partly cloudy - 19.7 1022.7 0.0
30/12:30pm E 9 17 - - - - 10 Partly cloudy - 20.7 1022.9 0.0
30/12:00pm E 10 17 - - - - 10 Partly cloudy - 21.2 1023.3 0.0
30/11:30am E 11 17 - - - - 10 Partly cloudy - 20.9 1023.8 0.0
30/11:00am E 13 20 - - - - 10 Partly cloudy - 20.7 1024.0 0.0
30/10:30am E 12 21 - - - - 10 Partly cloudy - 21.0 1024.3 0.0
30/10:00am E 12 19 - - - - 10 Partly cloudy - 20.3 1024.3 0.0
30/09:30am E 13 21 - - - - 10 Partly cloudy - 20.4 1024.4 0.0
30/09:00am E 12 20 - - - - 10 Partly cloudy - 20.4 1024.4 0.0
30/08:30am ESE 9 16 - - - - 25 Partly cloudy Recent precip. 20.2 1024.5 2.8
30/08:00am SE 7 15 - - - - 10 Partly cloudy - 19.2 1024.3 2.8
30/07:30am ESE 11 22 - - - - 9 Partly cloudy - 18.1 1024.4 2.8
30/07:00am ESE 9 18 - - - - 10 Partly cloudy - 18.9 1024.1 2.2
30/06:30am ESE 5 9 - - - - 10 Partly cloudy - 18.4 1023.8 2.2
30/06:00am ENE 6 16 - - - - 10 Partly cloudy - 18.2 1023.6 2.2
30/05:30am ENE 5 11 - - - - 25 Mostly clear Fine 18.1 1023.3 2.2
30/05:00am ENE 7 14 - - - - 10 Partly cloudy - 18.1 1022.8 2.2
30/04:30am E 7 13 - - - - 10 Partly cloudy - 18.4 1022.7 2.2
30/04:00am SSE 6 15 - - - - 10 Partly cloudy - 18.7 1022.6 2.2
30/03:30am S 3 7 - - - - 10 Cloudy - 18.1 1022.6 2.2
30/03:00am N 5 8 - - - - 10 Cloudy - 18.2 1022.6 2.2
30/02:30am E 7 11 - - - - 10 Cloudy - 18.4 1022.3 2.2
30/02:00am ESE 5 9 - - - - 10 Partly cloudy - 18.6 1022.4 2.2
30/01:30am E 8 15 - - - - 10 Partly cloudy - 18.5 1022.4 2.2
30/01:00am SSE 5 15 - - - - 10 Partly cloudy - 18.4 1022.4 2.2
30/12:30am E 4 9 - - - - 10 Partly cloudy - 18.2 1022.4 2.2
30/12:00am E 7 17 - - - - 10 Partly cloudy - 18.6 1022.5 2.2
 
Date/Time
EST
Wind Sea
Height
m
Swell Vis
km
Cloud Weather Temp
°C
Press
hPa
Rain since
9am
mm
Dir  Spd
kts
Gust
kts
Height
m
Period
s
Dir
29/11:30pm ESE 8 19 - - - - 10 Mostly cloudy - 18.3 1022.3 2.2
29/11:00pm SE 6 11 - - - - 10 Partly cloudy - 18.6 1022.4 2.2
29/10:30pm ESE 5 10 - - - - 10 Partly cloudy - 17.6 1022.5 2.2
29/10:00pm S 5 9 - - - - 10 Partly cloudy - 17.8 1022.5 2.2
29/09:31pm SSE 6 11 - - - - 10 Partly cloudy - 17.4 1022.6 2.2
29/09:30pm SSE 6 11 - - - - 10 Partly cloudy - 17.5 1022.6 2.2
29/09:10pm SE 7 15 - - - - 4 Partly cloudy - 17.8 1022.8 1.8
29/09:00pm S 5 10 - - - - 10 Partly cloudy - 18.1 1022.6 1.2
29/08:30pm ESE 6 9 - - - - 10 Partly cloudy Recent precip. 17.8 1022.5 1.2
29/08:00pm SSE 6 10 - - - - 10 Partly cloudy - 17.7 1022.3 1.2
29/07:30pm SE 6 16 - - - - 10 Partly cloudy - 17.8 1022.2 1.0
29/07:00pm SSE 4 8 - - - - 7 Partly cloudy - 16.6 1022.1 1.0
29/06:30pm SE 5 10 - - - - 10 Partly cloudy - 17.3 1021.9 0.6
29/06:00pm S 6 15 - - - - 10 Partly cloudy - 18.2 1021.7 0.0
29/05:30pm SSW 3 7 - - - - 10 Partly cloudy - 17.8 1021.4 0.0
29/05:00pm SSE 3 6 - - - - 10 Partly cloudy - 17.4 1021.2 0.0
29/04:30pm S 4 8 - - - - 10 Partly cloudy - 17.9 1021.1 0.0
29/04:00pm SSE 5 9 - - - - 10 Partly cloudy - 18.1 1020.9 0.0
29/03:30pm ESE 5 8 - - - - 10 Cloudy - 18.8 1020.6 0.0
29/03:00pm SSW 5 10 - - - - 10 Cloudy - 18.8 1020.5 0.0
29/02:30pm S 5 9 - - - - 10 Cloudy - 19.1 1020.4 0.0
29/02:00pm S 6 13 - - - - 10 Cloudy - 19.4 1020.4 0.0
29/01:30pm SSW 8 16 - - - - 10 Mostly cloudy - 19.8 1020.3 0.0
29/01:00pm SSW 9 16 - - - - 10 Mostly cloudy - 19.4 1020.4 0.0
29/12:30pm SSW 7 11 - - - - 10 Mostly cloudy - 19.5 1020.5 0.0
29/12:00pm SSW 5 9 - - - - 10 Mostly cloudy - 19.7 1020.8 0.0
29/11:30am SSW 6 13 - - - - 10 Cloudy - 19.9 1021.1 0.0
29/11:00am SSW 6 11 - - - - 10 Partly cloudy - 19.8 1021.3 0.0
29/10:30am WSW 4 9 - - - - 10 Mostly cloudy - 19.7 1021.6 0.0
29/10:00am S 5 9 - - - - 10 Mostly cloudy - 19.5 1021.7 0.0
29/09:30am S 4 6 - - - - 10 Mostly clear - 19.7 1021.9 0.0
29/09:00am W 3 5 - - - - 10 Mostly clear - 19.4 1021.8 0.0
29/08:30am SSE 3 5 - - - - 10 Cloudy - 19.4 1021.6 0.8
29/08:00am SE 4 6 - - - - 10 Mostly clear - 19.1 1021.5 0.8
29/07:30am SE 5 9 - - - - 10 Partly cloudy - 18.3 1021.2 0.8
29/07:00am ESE 7 10 - - - - 10 - - 18.0 1020.7 0.8
29/06:30am ESE 7 13 - - - - 10 - - 17.6 1020.3 0.8
29/06:00am ESE 8 13 - - - - 10 - - 17.6 1019.9 0.8

Other formats

Comma delimited format used in spreadsheet applications
http://www.bom.gov.au/fwo/IDN60701/IDN60701.94995.axf

JavaScript Object Notation format (JSON) in row-major order
http://www.bom.gov.au/fwo/IDN60701/IDN60701.94995.json

Data quality

Most of these data are generated automatically and are frequently updated. Quality checks on data are not normally performed. It is possible for incorrect values to appear. Refer to information at About Latest Weather Observations and please check the disclaimer before using these data.